sensor_id;sensor_type;location;lat;lon;timestamp;temperature;humidity
19870;DHT22;10097;50.862;4.696;2023-06-05T00:02:25;16.20;99.90
19870;DHT22;10097;50.862;4.696;2023-06-05T00:04:51;16.10;99.90
19870;DHT22;10097;50.862;4.696;2023-06-05T00:07:17;16.00;99.90
19870;DHT22;10097;50.862;4.696;2023-06-05T00:09:43;16.00;99.90
19870;DHT22;10097;50.862;4.696;2023-06-05T00:12:09;16.10;99.90
19870;DHT22;10097;50.862;4.696;2023-06-05T00:14:34;16.20;99.90
19870;DHT22;10097;50.862;4.696;2023-06-05T00:17:01;16.10;99.90
19870;DHT22;10097;50.862;4.696;2023-06-05T00:19:29;16.10;99.90
19870;DHT22;10097;50.862;4.696;2023-06-05T00:21:58;16.00;99.90
19870;DHT22;10097;50.862;4.696;2023-06-05T00:24:24;16.00;99.90
19870;DHT22;10097;50.862;4.696;2023-06-05T00:26:53;16.00;99.90
19870;DHT22;10097;50.862;4.696;2023-06-05T00:29:19;15.90;99.90
19870;DHT22;10097;50.862;4.696;2023-06-05T00:31:45;15.90;99.90
19870;DHT22;10097;50.862;4.696;2023-06-05T00:34:12;15.90;99.90
19870;DHT22;10097;50.862;4.696;2023-06-05T00:36:39;15.90;99.90
19870;DHT22;10097;50.862;4.696;2023-06-05T00:39:06;15.80;99.90
19870;DHT22;10097;50.862;4.696;2023-06-05T00:41:32;15.80;99.90
19870;DHT22;10097;50.862;4.696;2023-06-05T00:43:58;15.80;99.90
19870;DHT22;10097;50.862;4.696;2023-06-05T00:46:24;15.80;99.90
19870;DHT22;10097;50.862;4.696;2023-06-05T00:48:49;15.70;99.90
19870;DHT22;10097;50.862;4.696;2023-06-05T00:51:16;15.60;99.90
19870;DHT22;10097;50.862;4.696;2023-06-05T00:53:44;15.50;99.90
19870;DHT22;10097;50.862;4.696;2023-06-05T00:56:10;15.40;99.90
19870;DHT22;10097;50.862;4.696;2023-06-05T00:58:38;15.50;99.90
19870;DHT22;10097;50.862;4.696;2023-06-05T01:01:09;15.40;99.90
19870;DHT22;10097;50.862;4.696;2023-06-05T01:03:36;15.40;99.90
19870;DHT22;10097;50.862;4.696;2023-06-05T01:06:10;15.40;99.90
19870;DHT22;10097;50.862;4.696;2023-06-05T01:08:37;15.40;99.90
19870;DHT22;10097;50.862;4.696;2023-06-05T01:11:38;15.30;99.90
19870;DHT22;10097;50.862;4.696;2023-06-05T01:14:14;15.30;99.90
19870;DHT22;10097;50.862;4.696;2023-06-05T01:16:47;15.20;99.90
19870;DHT22;10097;50.862;4.696;2023-06-05T01:19:14;15.20;99.90
19870;DHT22;10097;50.862;4.696;2023-06-05T01:21:40;15.30;99.90
19870;DHT22;10097;50.862;4.696;2023-06-05T01:24:06;15.20;99.90
19870;DHT22;10097;50.862;4.696;2023-06-05T01:27:01;15.30;99.90
19870;DHT22;10097;50.862;4.696;2023-06-05T01:32:43;15.10;99.90
19870;DHT22;10097;50.862;4.696;2023-06-05T01:35:13;15.00;99.90
19870;DHT22;10097;50.862;4.696;2023-06-05T01:37:47;14.90;99.90
19870;DHT22;10097;50.862;4.696;2023-06-05T01:40:20;15.00;99.90
19870;DHT22;10097;50.862;4.696;2023-06-05T01:42:47;14.90;99.90
19870;DHT22;10097;50.862;4.696;2023-06-05T01:45:15;14.90;99.90
19870;DHT22;10097;50.862;4.696;2023-06-05T01:47:41;14.80;99.90
19870;DHT22;10097;50.862;4.696;2023-06-05T01:50:08;14.80;99.90
19870;DHT22;10097;50.862;4.696;2023-06-05T01:52:37;14.70;99.90
19870;DHT22;10097;50.862;4.696;2023-06-05T01:55:09;14.70;99.90
19870;DHT22;10097;50.862;4.696;2023-06-05T01:57:43;14.70;99.90
19870;DHT22;10097;50.862;4.696;2023-06-05T02:00:09;14.60;99.90
19870;DHT22;10097;50.862;4.696;2023-06-05T02:02:45;14.50;99.90
19870;DHT22;10097;50.862;4.696;2023-06-05T02:05:12;14.50;99.90
19870;DHT22;10097;50.862;4.696;2023-06-05T02:07:39;14.60;99.90
19870;DHT22;10097;50.862;4.696;2023-06-05T02:10:07;14.60;99.90
19870;DHT22;10097;50.862;4.696;2023-06-05T02:12:34;14.60;99.90
19870;DHT22;10097;50.862;4.696;2023-06-05T02:15:00;14.50;99.90
19870;DHT22;10097;50.862;4.696;2023-06-05T02:17:26;14.40;99.90
19870;DHT22;10097;50.862;4.696;2023-06-05T02:19:52;14.40;99.90
19870;DHT22;10097;50.862;4.696;2023-06-05T02:22:18;14.40;99.90
19870;DHT22;10097;50.862;4.696;2023-06-05T02:24:44;14.40;99.90
19870;DHT22;10097;50.862;4.696;2023-06-05T02:27:10;14.40;99.90
19870;DHT22;10097;50.862;4.696;2023-06-05T02:29:39;14.40;99.90
19870;DHT22;10097;50.862;4.696;2023-06-05T02:32:05;14.30;99.90
19870;DHT22;10097;50.862;4.696;2023-06-05T02:34:32;14.20;99.90
19870;DHT22;10097;50.862;4.696;2023-06-05T02:36:58;14.10;99.90
19870;DHT22;10097;50.862;4.696;2023-06-05T02:39:24;14.10;99.90
19870;DHT22;10097;50.862;4.696;2023-06-05T02:41:53;13.90;99.90
19870;DHT22;10097;50.862;4.696;2023-06-05T02:44:19;13.90;99.90
19870;DHT22;10097;50.862;4.696;2023-06-05T02:46:44;14.00;99.90
19870;DHT22;10097;50.862;4.696;2023-06-05T02:49:13;14.00;99.90
19870;DHT22;10097;50.862;4.696;2023-06-05T02:51:41;13.90;99.90
19870;DHT22;10097;50.862;4.696;2023-06-05T02:54:07;13.90;99.90
19870;DHT22;10097;50.862;4.696;2023-06-05T02:56:33;13.80;99.90
19870;DHT22;10097;50.862;4.696;2023-06-05T02:59:00;13.70;99.90
19870;DHT22;10097;50.862;4.696;2023-06-05T03:01:28;13.70;99.90
19870;DHT22;10097;50.862;4.696;2023-06-05T03:04:00;13.80;99.90
19870;DHT22;10097;50.862;4.696;2023-06-05T03:06:28;13.70;99.90
19870;DHT22;10097;50.862;4.696;2023-06-05T03:08:59;13.70;99.90
19870;DHT22;10097;50.862;4.696;2023-06-05T03:11:24;13.80;99.90
19870;DHT22;10097;50.862;4.696;2023-06-05T03:13:52;13.80;99.90
19870;DHT22;10097;50.862;4.696;2023-06-05T03:16:17;13.80;99.90
19870;DHT22;10097;50.862;4.696;2023-06-05T03:18:44;13.80;99.90
19870;DHT22;10097;50.862;4.696;2023-06-05T03:21:11;13.70;99.90
19870;DHT22;10097;50.862;4.696;2023-06-05T03:23:37;13.80;99.90
19870;DHT22;10097;50.862;4.696;2023-06-05T03:26:02;13.70;99.90
19870;DHT22;10097;50.862;4.696;2023-06-05T03:28:29;13.70;99.90
19870;DHT22;10097;50.862;4.696;2023-06-05T03:30:56;13.70;99.90
19870;DHT22;10097;50.862;4.696;2023-06-05T03:33:21;13.70;99.90
19870;DHT22;10097;50.862;4.696;2023-06-05T03:35:47;13.60;99.90
19870;DHT22;10097;50.862;4.696;2023-06-05T03:38:14;13.60;99.90
19870;DHT22;10097;50.862;4.696;2023-06-05T03:40:40;13.60;99.90
19870;DHT22;10097;50.862;4.696;2023-06-05T03:43:06;13.50;99.90
19870;DHT22;10097;50.862;4.696;2023-06-05T03:45:35;13.50;99.90
19870;DHT22;10097;50.862;4.696;2023-06-05T03:48:01;13.60;99.90
19870;DHT22;10097;50.862;4.696;2023-06-05T03:50:28;13.60;99.90
19870;DHT22;10097;50.862;4.696;2023-06-05T03:52:54;13.60;99.90
19870;DHT22;10097;50.862;4.696;2023-06-05T03:55:30;13.60;99.90
19870;DHT22;10097;50.862;4.696;2023-06-05T03:58:09;13.60;99.90
19870;DHT22;10097;50.862;4.696;2023-06-05T04:00:38;13.70;99.90
19870;DHT22;10097;50.862;4.696;2023-06-05T04:03:07;13.70;99.90
19870;DHT22;10097;50.862;4.696;2023-06-05T04:05:34;13.60;99.90
19870;DHT22;10097;50.862;4.696;2023-06-05T04:08:01;13.50;99.90
19870;DHT22;10097;50.862;4.696;2023-06-05T04:10:27;13.50;99.90
19870;DHT22;10097;50.862;4.696;2023-06-05T04:12:52;13.50;99.90
19870;DHT22;10097;50.862;4.696;2023-06-05T04:15:18;13.70;99.90
19870;DHT22;10097;50.862;4.696;2023-06-05T04:17:43;13.60;99.90
19870;DHT22;10097;50.862;4.696;2023-06-05T04:20:12;13.60;99.90
19870;DHT22;10097;50.862;4.696;2023-06-05T04:22:41;13.60;99.90
19870;DHT22;10097;50.862;4.696;2023-06-05T04:25:07;13.50;99.90
19870;DHT22;10097;50.862;4.696;2023-06-05T04:27:37;13.50;99.90
19870;DHT22;10097;50.862;4.696;2023-06-05T04:30:05;13.50;99.90
19870;DHT22;10097;50.862;4.696;2023-06-05T04:32:30;13.40;99.90
19870;DHT22;10097;50.862;4.696;2023-06-05T04:34:59;13.40;99.90
19870;DHT22;10097;50.862;4.696;2023-06-05T04:37:26;13.50;99.90
19870;DHT22;10097;50.862;4.696;2023-06-05T04:39:51;13.40;99.90
19870;DHT22;10097;50.862;4.696;2023-06-05T04:42:18;13.50;99.90
19870;DHT22;10097;50.862;4.696;2023-06-05T04:44:44;13.50;99.90
19870;DHT22;10097;50.862;4.696;2023-06-05T04:47:10;13.40;99.90
19870;DHT22;10097;50.862;4.696;2023-06-05T04:49:35;13.40;99.90
19870;DHT22;10097;50.862;4.696;2023-06-05T04:52:02;13.40;99.90
19870;DHT22;10097;50.862;4.696;2023-06-05T04:54:27;13.50;99.90
19870;DHT22;10097;50.862;4.696;2023-06-05T04:56:53;13.40;99.90
19870;DHT22;10097;50.862;4.696;2023-06-05T04:59:21;13.40;99.90
19870;DHT22;10097;50.862;4.696;2023-06-05T05:01:48;13.40;99.90
19870;DHT22;10097;50.862;4.696;2023-06-05T05:04:15;13.50;99.90
19870;DHT22;10097;50.862;4.696;2023-06-05T05:06:41;13.60;99.90
19870;DHT22;10097;50.862;4.696;2023-06-05T05:09:12;13.60;99.90
19870;DHT22;10097;50.862;4.696;2023-06-05T05:11:38;13.70;99.90
19870;DHT22;10097;50.862;4.696;2023-06-05T05:14:06;13.70;99.90
19870;DHT22;10097;50.862;4.696;2023-06-05T05:16:32;13.70;99.90
19870;DHT22;10097;50.862;4.696;2023-06-05T05:18:58;13.60;99.90
19870;DHT22;10097;50.862;4.696;2023-06-05T05:21:24;13.60;99.90
19870;DHT22;10097;50.862;4.696;2023-06-05T05:23:49;13.50;99.90
19870;DHT22;10097;50.862;4.696;2023-06-05T05:26:15;13.50;99.90
19870;DHT22;10097;50.862;4.696;2023-06-05T05:28:41;13.60;99.90
19870;DHT22;10097;50.862;4.696;2023-06-05T05:31:06;13.70;99.90
19870;DHT22;10097;50.862;4.696;2023-06-05T05:33:32;13.70;99.90
19870;DHT22;10097;50.862;4.696;2023-06-05T05:35:58;13.80;99.90
19870;DHT22;10097;50.862;4.696;2023-06-05T05:38:23;13.90;99.90
19870;DHT22;10097;50.862;4.696;2023-06-05T05:40:51;14.00;99.90
19870;DHT22;10097;50.862;4.696;2023-06-05T05:43:16;14.00;99.90
19870;DHT22;10097;50.862;4.696;2023-06-05T05:45:42;14.00;99.90
19870;DHT22;10097;50.862;4.696;2023-06-05T05:48:09;13.90;99.90
19870;DHT22;10097;50.862;4.696;2023-06-05T05:50:35;14.00;99.90
19870;DHT22;10097;50.862;4.696;2023-06-05T05:53:00;14.10;99.90
19870;DHT22;10097;50.862;4.696;2023-06-05T05:55:26;14.00;99.90
19870;DHT22;10097;50.862;4.696;2023-06-05T05:57:52;13.90;99.90
19870;DHT22;10097;50.862;4.696;2023-06-05T06:00:18;14.00;99.90
19870;DHT22;10097;50.862;4.696;2023-06-05T06:02:44;14.10;99.90
19870;DHT22;10097;50.862;4.696;2023-06-05T06:05:10;14.10;99.90
19870;DHT22;10097;50.862;4.696;2023-06-05T06:07:37;14.10;99.90
19870;DHT22;10097;50.862;4.696;2023-06-05T06:10:06;14.30;99.90
19870;DHT22;10097;50.862;4.696;2023-06-05T06:12:33;14.40;99.90
19870;DHT22;10097;50.862;4.696;2023-06-05T06:14:59;14.50;99.90
19870;DHT22;10097;50.862;4.696;2023-06-05T06:17:24;14.30;99.90
19870;DHT22;10097;50.862;4.696;2023-06-05T06:19:50;14.30;99.90
19870;DHT22;10097;50.862;4.696;2023-06-05T06:22:16;14.40;99.90
19870;DHT22;10097;50.862;4.696;2023-06-05T06:24:42;14.50;99.90
19870;DHT22;10097;50.862;4.696;2023-06-05T06:27:08;14.60;99.90
19870;DHT22;10097;50.862;4.696;2023-06-05T06:29:37;14.70;99.90
19870;DHT22;10097;50.862;4.696;2023-06-05T06:32:03;14.70;99.90
19870;DHT22;10097;50.862;4.696;2023-06-05T06:34:29;14.80;99.90
19870;DHT22;10097;50.862;4.696;2023-06-05T06:37:01;14.70;99.90
19870;DHT22;10097;50.862;4.696;2023-06-05T06:39:26;14.80;99.90
19870;DHT22;10097;50.862;4.696;2023-06-05T06:41:52;14.90;99.90
19870;DHT22;10097;50.862;4.696;2023-06-05T06:44:19;15.00;99.90
19870;DHT22;10097;50.862;4.696;2023-06-05T06:46:44;15.20;99.90
19870;DHT22;10097;50.862;4.696;2023-06-05T06:49:10;15.10;99.90
19870;DHT22;10097;50.862;4.696;2023-06-05T06:51:36;15.10;99.90
19870;DHT22;10097;50.862;4.696;2023-06-05T06:54:02;15.10;99.90
19870;DHT22;10097;50.862;4.696;2023-06-05T06:56:28;15.20;99.90
19870;DHT22;10097;50.862;4.696;2023-06-05T06:58:53;15.30;99.90
19870;DHT22;10097;50.862;4.696;2023-06-05T07:01:20;15.40;99.90
19870;DHT22;10097;50.862;4.696;2023-06-05T07:03:46;15.30;99.90
19870;DHT22;10097;50.862;4.696;2023-06-05T07:06:15;15.40;99.90
19870;DHT22;10097;50.862;4.696;2023-06-05T07:08:40;15.50;99.90
19870;DHT22;10097;50.862;4.696;2023-06-05T07:11:06;15.50;99.90
19870;DHT22;10097;50.862;4.696;2023-06-05T07:13:32;15.50;99.90
19870;DHT22;10097;50.862;4.696;2023-06-05T07:15:58;15.50;99.90
19870;DHT22;10097;50.862;4.696;2023-06-05T07:18:23;15.60;99.90
19870;DHT22;10097;50.862;4.696;2023-06-05T07:20:49;15.70;99.90
19870;DHT22;10097;50.862;4.696;2023-06-05T07:23:15;15.80;99.90
19870;DHT22;10097;50.862;4.696;2023-06-05T07:25:40;16.10;99.90
19870;DHT22;10097;50.862;4.696;2023-06-05T07:28:09;16.10;99.90
19870;DHT22;10097;50.862;4.696;2023-06-05T07:30:40;16.20;99.90
19870;DHT22;10097;50.862;4.696;2023-06-05T07:33:08;16.30;99.90
19870;DHT22;10097;50.862;4.696;2023-06-05T07:35:35;16.40;99.90
19870;DHT22;10097;50.862;4.696;2023-06-05T07:38:00;16.60;99.90
19870;DHT22;10097;50.862;4.696;2023-06-05T07:40:26;16.50;99.90
19870;DHT22;10097;50.862;4.696;2023-06-05T07:42:52;16.40;99.90
19870;DHT22;10097;50.862;4.696;2023-06-05T07:45:17;16.30;99.90
19870;DHT22;10097;50.862;4.696;2023-06-05T07:47:43;16.40;99.90
19870;DHT22;10097;50.862;4.696;2023-06-05T07:50:09;16.50;99.90
19870;DHT22;10097;50.862;4.696;2023-06-05T07:52:36;16.70;99.90
19870;DHT22;10097;50.862;4.696;2023-06-05T07:55:02;17.00;99.90
19870;DHT22;10097;50.862;4.696;2023-06-05T07:57:30;17.20;99.90
19870;DHT22;10097;50.862;4.696;2023-06-05T07:59:56;17.20;99.90
19870;DHT22;10097;50.862;4.696;2023-06-05T08:02:22;17.20;99.90
19870;DHT22;10097;50.862;4.696;2023-06-05T08:04:48;17.20;99.90
19870;DHT22;10097;50.862;4.696;2023-06-05T08:07:14;17.20;99.90
19870;DHT22;10097;50.862;4.696;2023-06-05T08:09:40;17.20;99.90
19870;DHT22;10097;50.862;4.696;2023-06-05T08:12:06;17.20;99.90
19870;DHT22;10097;50.862;4.696;2023-06-05T08:14:33;17.40;99.90
19870;DHT22;10097;50.862;4.696;2023-06-05T08:16:59;17.50;99.90
19870;DHT22;10097;50.862;4.696;2023-06-05T08:19:25;17.50;99.90
19870;DHT22;10097;50.862;4.696;2023-06-05T08:21:52;17.60;99.90
19870;DHT22;10097;50.862;4.696;2023-06-05T08:24:20;17.70;99.90
19870;DHT22;10097;50.862;4.696;2023-06-05T08:26:46;17.90;99.90
19870;DHT22;10097;50.862;4.696;2023-06-05T08:29:12;18.00;99.90
19870;DHT22;10097;50.862;4.696;2023-06-05T08:31:38;17.90;99.90
19870;DHT22;10097;50.862;4.696;2023-06-05T08:34:04;17.90;99.90
19870;DHT22;10097;50.862;4.696;2023-06-05T08:36:33;18.20;99.90
19870;DHT22;10097;50.862;4.696;2023-06-05T08:39:01;18.20;99.90
19870;DHT22;10097;50.862;4.696;2023-06-05T08:41:29;18.30;99.90
19870;DHT22;10097;50.862;4.696;2023-06-05T08:43:56;18.30;99.90
19870;DHT22;10097;50.862;4.696;2023-06-05T08:46:22;18.30;99.90
19870;DHT22;10097;50.862;4.696;2023-06-05T08:48:49;18.50;99.90
19870;DHT22;10097;50.862;4.696;2023-06-05T08:51:21;18.70;99.90
19870;DHT22;10097;50.862;4.696;2023-06-05T08:53:54;18.90;99.90
19870;DHT22;10097;50.862;4.696;2023-06-05T08:56:21;19.00;99.90
19870;DHT22;10097;50.862;4.696;2023-06-05T08:58:48;19.10;99.90
19870;DHT22;10097;50.862;4.696;2023-06-05T09:01:15;19.10;99.90
19870;DHT22;10097;50.862;4.696;2023-06-05T09:03:42;19.20;99.90
19870;DHT22;10097;50.862;4.696;2023-06-05T09:06:10;19.30;99.90
19870;DHT22;10097;50.862;4.696;2023-06-05T09:08:36;19.20;99.90
19870;DHT22;10097;50.862;4.696;2023-06-05T09:11:22;19.10;99.90
19870;DHT22;10097;50.862;4.696;2023-06-05T09:13:49;19.20;99.90
19870;DHT22;10097;50.862;4.696;2023-06-05T09:16:18;19.20;99.90
19870;DHT22;10097;50.862;4.696;2023-06-05T09:18:57;19.40;99.90
19870;DHT22;10097;50.862;4.696;2023-06-05T09:21:25;19.60;99.90
19870;DHT22;10097;50.862;4.696;2023-06-05T09:24:19;19.80;99.90
19870;DHT22;10097;50.862;4.696;2023-06-05T09:26:55;20.00;99.90
19870;DHT22;10097;50.862;4.696;2023-06-05T09:31:52;20.30;99.90
19870;DHT22;10097;50.862;4.696;2023-06-05T09:34:44;20.40;99.90
19870;DHT22;10097;50.862;4.696;2023-06-05T09:37:12;20.50;99.90
19870;DHT22;10097;50.862;4.696;2023-06-05T09:39:40;20.50;99.90
19870;DHT22;10097;50.862;4.696;2023-06-05T09:42:06;20.60;99.90
19870;DHT22;10097;50.862;4.696;2023-06-05T09:44:33;20.60;99.90
19870;DHT22;10097;50.862;4.696;2023-06-05T09:49:48;20.90;99.90
19870;DHT22;10097;50.862;4.696;2023-06-05T09:52:14;20.90;99.90
19870;DHT22;10097;50.862;4.696;2023-06-05T09:54:44;20.90;99.90
19870;DHT22;10097;50.862;4.696;2023-06-05T09:57:12;21.30;99.90
19870;DHT22;10097;50.862;4.696;2023-06-05T09:59:52;21.60;99.90
19870;DHT22;10097;50.862;4.696;2023-06-05T10:02:24;21.70;99.90
19870;DHT22;10097;50.862;4.696;2023-06-05T10:05:01;21.80;99.90
19870;DHT22;10097;50.862;4.696;2023-06-05T10:07:32;21.80;99.90
19870;DHT22;10097;50.862;4.696;2023-06-05T10:10:01;22.00;99.90
19870;DHT22;10097;50.862;4.696;2023-06-05T10:12:27;21.90;99.90
19870;DHT22;10097;50.862;4.696;2023-06-05T10:14:57;22.20;99.90
19870;DHT22;10097;50.862;4.696;2023-06-05T10:17:26;22.30;99.90
19870;DHT22;10097;50.862;4.696;2023-06-05T10:19:53;22.30;99.90
19870;DHT22;10097;50.862;4.696;2023-06-05T10:22:18;22.50;99.90
19870;DHT22;10097;50.862;4.696;2023-06-05T10:24:47;22.50;99.90
19870;DHT22;10097;50.862;4.696;2023-06-05T10:35:50;22.60;99.90
19870;DHT22;10097;50.862;4.696;2023-06-05T10:38:22;22.80;99.90
19870;DHT22;10097;50.862;4.696;2023-06-05T10:40:55;22.80;99.90
19870;DHT22;10097;50.862;4.696;2023-06-05T10:43:52;23.10;99.90
19870;DHT22;10097;50.862;4.696;2023-06-05T10:51:42;23.10;99.90
19870;DHT22;10097;50.862;4.696;2023-06-05T10:57:04;23.40;99.90
19870;DHT22;10097;50.862;4.696;2023-06-05T10:59:33;23.60;99.90
19870;DHT22;10097;50.862;4.696;2023-06-05T11:07:20;24.10;99.90
19870;DHT22;10097;50.862;4.696;2023-06-05T11:17:39;27.60;99.90
19870;DHT22;10097;50.862;4.696;2023-06-05T11:20:06;28.00;99.90
19870;DHT22;10097;50.862;4.696;2023-06-05T11:25:24;28.40;99.90
19870;DHT22;10097;50.862;4.696;2023-06-05T11:27:59;28.00;99.90
19870;DHT22;10097;50.862;4.696;2023-06-05T11:33:07;29.40;99.90
19870;DHT22;10097;50.862;4.696;2023-06-05T11:35:35;30.00;98.90
19870;DHT22;10097;50.862;4.696;2023-06-05T11:38:11;29.70;96.30
19870;DHT22;10097;50.862;4.696;2023-06-05T11:40:38;29.50;95.30
19870;DHT22;10097;50.862;4.696;2023-06-05T11:43:06;29.60;95.40
19870;DHT22;10097;50.862;4.696;2023-06-05T11:45:37;29.70;95.40
19870;DHT22;10097;50.862;4.696;2023-06-05T11:48:08;29.50;94.70
19870;DHT22;10097;50.862;4.696;2023-06-05T11:50:34;29.40;93.70
19870;DHT22;10097;50.862;4.696;2023-06-05T11:53:08;29.30;94.30
19870;DHT22;10097;50.862;4.696;2023-06-05T11:55:34;29.50;92.90
19870;DHT22;10097;50.862;4.696;2023-06-05T11:58:26;29.60;92.60
19870;DHT22;10097;50.862;4.696;2023-06-05T12:03:38;29.10;91.70
19870;DHT22;10097;50.862;4.696;2023-06-05T12:06:05;29.40;90.90
19870;DHT22;10097;50.862;4.696;2023-06-05T12:08:33;28.80;90.40
19870;DHT22;10097;50.862;4.696;2023-06-05T12:11:01;29.00;91.10
19870;DHT22;10097;50.862;4.696;2023-06-05T12:13:50;28.90;90.90
19870;DHT22;10097;50.862;4.696;2023-06-05T12:16:29;29.00;89.40
19870;DHT22;10097;50.862;4.696;2023-06-05T12:18:56;28.90;88.50
19870;DHT22;10097;50.862;4.696;2023-06-05T12:21:23;28.90;86.00
19870;DHT22;10097;50.862;4.696;2023-06-05T12:23:50;29.30;89.70
19870;DHT22;10097;50.862;4.696;2023-06-05T12:26:16;30.20;86.80
19870;DHT22;10097;50.862;4.696;2023-06-05T12:28:43;30.60;86.00
19870;DHT22;10097;50.862;4.696;2023-06-05T12:31:10;30.30;86.00
19870;DHT22;10097;50.862;4.696;2023-06-05T12:33:47;30.10;83.60
19870;DHT22;10097;50.862;4.696;2023-06-05T12:36:12;30.50;82.70
19870;DHT22;10097;50.862;4.696;2023-06-05T12:38:39;30.80;80.90
19870;DHT22;10097;50.862;4.696;2023-06-05T12:41:06;30.90;77.90
19870;DHT22;10097;50.862;4.696;2023-06-05T12:43:33;30.80;77.10
19870;DHT22;10097;50.862;4.696;2023-06-05T12:45:58;30.40;80.70
19870;DHT22;10097;50.862;4.696;2023-06-05T12:48:24;30.40;80.70
19870;DHT22;10097;50.862;4.696;2023-06-05T12:50:51;30.50;80.00
19870;DHT22;10097;50.862;4.696;2023-06-05T12:53:17;30.40;80.20
19870;DHT22;10097;50.862;4.696;2023-06-05T12:55:43;30.60;77.90
19870;DHT22;10097;50.862;4.696;2023-06-05T12:58:09;30.80;79.60
19870;DHT22;10097;50.862;4.696;2023-06-05T13:00:35;30.90;77.80
19870;DHT22;10097;50.862;4.696;2023-06-05T13:03:03;30.90;77.20
19870;DHT22;10097;50.862;4.696;2023-06-05T13:05:29;30.60;75.90
19870;DHT22;10097;50.862;4.696;2023-06-05T13:07:57;30.70;75.40
19870;DHT22;10097;50.862;4.696;2023-06-05T13:10:23;30.10;75.00
19870;DHT22;10097;50.862;4.696;2023-06-05T13:12:49;30.20;74.30
19870;DHT22;10097;50.862;4.696;2023-06-05T13:15:16;30.40;74.20
19870;DHT22;10097;50.862;4.696;2023-06-05T13:17:41;31.10;73.80
19870;DHT22;10097;50.862;4.696;2023-06-05T13:20:08;30.90;72.90
19870;DHT22;10097;50.862;4.696;2023-06-05T13:22:39;31.00;73.10
19870;DHT22;10097;50.862;4.696;2023-06-05T13:25:06;31.30;74.90
19870;DHT22;10097;50.862;4.696;2023-06-05T13:27:32;31.60;71.70
19870;DHT22;10097;50.862;4.696;2023-06-05T13:29:58;32.00;70.50
19870;DHT22;10097;50.862;4.696;2023-06-05T13:32:23;31.90;68.60
19870;DHT22;10097;50.862;4.696;2023-06-05T13:34:50;32.10;69.30
19870;DHT22;10097;50.862;4.696;2023-06-05T13:37:16;32.00;69.90
19870;DHT22;10097;50.862;4.696;2023-06-05T13:39:42;31.70;70.30
19870;DHT22;10097;50.862;4.696;2023-06-05T13:42:07;31.70;71.50
19870;DHT22;10097;50.862;4.696;2023-06-05T13:44:34;31.40;71.70
19870;DHT22;10097;50.862;4.696;2023-06-05T13:47:00;31.80;69.70
19870;DHT22;10097;50.862;4.696;2023-06-05T13:49:29;32.10;70.60
19870;DHT22;10097;50.862;4.696;2023-06-05T13:51:57;31.10;70.30
19870;DHT22;10097;50.862;4.696;2023-06-05T13:54:23;30.90;72.00
19870;DHT22;10097;50.862;4.696;2023-06-05T13:56:49;31.10;71.20
19870;DHT22;10097;50.862;4.696;2023-06-05T13:59:17;31.10;70.70
19870;DHT22;10097;50.862;4.696;2023-06-05T14:01:43;31.60;69.70
19870;DHT22;10097;50.862;4.696;2023-06-05T14:04:08;31.80;68.50
19870;DHT22;10097;50.862;4.696;2023-06-05T14:06:34;31.90;69.10
19870;DHT22;10097;50.862;4.696;2023-06-05T14:09:04;31.70;69.80
19870;DHT22;10097;50.862;4.696;2023-06-05T14:11:29;31.50;69.20
19870;DHT22;10097;50.862;4.696;2023-06-05T14:13:56;30.80;70.40
19870;DHT22;10097;50.862;4.696;2023-06-05T14:16:23;30.80;72.30
19870;DHT22;10097;50.862;4.696;2023-06-05T14:18:48;31.10;71.50
19870;DHT22;10097;50.862;4.696;2023-06-05T14:21:14;31.50;70.90
19870;DHT22;10097;50.862;4.696;2023-06-05T14:23:41;31.10;70.50
19870;DHT22;10097;50.862;4.696;2023-06-05T14:26:08;31.50;69.80
19870;DHT22;10097;50.862;4.696;2023-06-05T14:28:35;31.80;67.70
19870;DHT22;10097;50.862;4.696;2023-06-05T14:31:02;31.40;68.20
19870;DHT22;10097;50.862;4.696;2023-06-05T14:33:28;31.80;68.40
19870;DHT22;10097;50.862;4.696;2023-06-05T14:35:54;31.60;70.50
19870;DHT22;10097;50.862;4.696;2023-06-05T14:38:20;31.30;70.10
19870;DHT22;10097;50.862;4.696;2023-06-05T14:40:45;31.30;68.90
19870;DHT22;10097;50.862;4.696;2023-06-05T14:43:11;31.20;70.20
19870;DHT22;10097;50.862;4.696;2023-06-05T14:45:37;31.80;70.50
19870;DHT22;10097;50.862;4.696;2023-06-05T14:48:02;32.40;68.60
19870;DHT22;10097;50.862;4.696;2023-06-05T14:50:28;32.40;67.60
19870;DHT22;10097;50.862;4.696;2023-06-05T14:52:54;32.60;66.60
19870;DHT22;10097;50.862;4.696;2023-06-05T14:55:20;32.60;66.40
19870;DHT22;10097;50.862;4.696;2023-06-05T14:57:46;31.60;67.80
19870;DHT22;10097;50.862;4.696;2023-06-05T15:00:12;32.20;67.10
19870;DHT22;10097;50.862;4.696;2023-06-05T15:02:38;32.80;66.60
19870;DHT22;10097;50.862;4.696;2023-06-05T15:05:04;32.40;65.30
19870;DHT22;10097;50.862;4.696;2023-06-05T15:07:40;32.20;67.60
19870;DHT22;10097;50.862;4.696;2023-06-05T15:10:06;32.00;67.60
19870;DHT22;10097;50.862;4.696;2023-06-05T15:12:34;32.20;68.20
19870;DHT22;10097;50.862;4.696;2023-06-05T15:14:59;32.00;65.90
19870;DHT22;10097;50.862;4.696;2023-06-05T15:17:25;32.20;65.90
19870;DHT22;10097;50.862;4.696;2023-06-05T15:19:51;31.50;65.10
19870;DHT22;10097;50.862;4.696;2023-06-05T15:22:16;31.90;66.20
19870;DHT22;10097;50.862;4.696;2023-06-05T15:24:42;32.50;64.80
19870;DHT22;10097;50.862;4.696;2023-06-05T15:27:09;33.00;63.50
19870;DHT22;10097;50.862;4.696;2023-06-05T15:29:36;32.80;64.70
19870;DHT22;10097;50.862;4.696;2023-06-05T15:32:02;32.50;64.80
19870;DHT22;10097;50.862;4.696;2023-06-05T15:34:33;32.40;64.80
19870;DHT22;10097;50.862;4.696;2023-06-05T15:36:59;33.00;65.60
19870;DHT22;10097;50.862;4.696;2023-06-05T15:39:25;33.30;63.70
19870;DHT22;10097;50.862;4.696;2023-06-05T15:41:50;34.10;63.50
19870;DHT22;10097;50.862;4.696;2023-06-05T15:44:16;34.20;62.20
19870;DHT22;10097;50.862;4.696;2023-06-05T15:46:42;34.50;61.00
19870;DHT22;10097;50.862;4.696;2023-06-05T15:49:08;33.90;61.80
19870;DHT22;10097;50.862;4.696;2023-06-05T15:51:33;34.10;61.50
19870;DHT22;10097;50.862;4.696;2023-06-05T15:53:59;34.40;60.50
19870;DHT22;10097;50.862;4.696;2023-06-05T15:56:25;34.10;59.80
19870;DHT22;10097;50.862;4.696;2023-06-05T15:58:52;33.90;62.00
19870;DHT22;10097;50.862;4.696;2023-06-05T16:01:17;33.70;61.70
19870;DHT22;10097;50.862;4.696;2023-06-05T16:03:46;33.30;62.00
19870;DHT22;10097;50.862;4.696;2023-06-05T16:06:12;33.10;62.30
19870;DHT22;10097;50.862;4.696;2023-06-05T16:08:39;32.40;62.50
19870;DHT22;10097;50.862;4.696;2023-06-05T16:11:05;32.10;62.90
19870;DHT22;10097;50.862;4.696;2023-06-05T16:13:31;32.30;63.40
19870;DHT22;10097;50.862;4.696;2023-06-05T16:15:57;32.70;63.50
19870;DHT22;10097;50.862;4.696;2023-06-05T16:18:23;33.00;62.40
19870;DHT22;10097;50.862;4.696;2023-06-05T16:20:49;33.00;62.50